sensor_id;sensor_type;location;lat;lon;timestamp;P1;durP1;ratioP1;P2;durP2;ratioP2
12703;SDS011;6416;52.182;7.650;2023-04-28T00:01:42;4.30;;;2.63;;
12703;SDS011;6416;52.182;7.650;2023-04-28T00:04:07;5.60;;;3.00;;
12703;SDS011;6416;52.182;7.650;2023-04-28T00:06:33;3.30;;;2.63;;
12703;SDS011;6416;52.182;7.650;2023-04-28T00:08:58;3.73;;;2.47;;
12703;SDS011;6416;52.182;7.650;2023-04-28T00:11:24;2.83;;;2.63;;
12703;SDS011;6416;52.182;7.650;2023-04-28T00:13:49;2.80;;;2.60;;
12703;SDS011;6416;52.182;7.650;2023-04-28T00:16:15;2.60;;;2.40;;
12703;SDS011;6416;52.182;7.650;2023-04-28T00:18:40;3.93;;;2.77;;
12703;SDS011;6416;52.182;7.650;2023-04-28T00:21:05;3.37;;;2.80;;
12703;SDS011;6416;52.182;7.650;2023-04-28T00:23:31;3.33;;;2.60;;
12703;SDS011;6416;52.182;7.650;2023-04-28T00:25:56;3.37;;;2.83;;
12703;SDS011;6416;52.182;7.650;2023-04-28T00:28:22;5.73;;;3.23;;
12703;SDS011;6416;52.182;7.650;2023-04-28T00:30:47;4.07;;;3.43;;
12703;SDS011;6416;52.182;7.650;2023-04-28T00:33:13;4.17;;;2.90;;
12703;SDS011;6416;52.182;7.650;2023-04-28T00:35:39;3.93;;;3.03;;
12703;SDS011;6416;52.182;7.650;2023-04-28T00:38:04;4.37;;;2.90;;
12703;SDS011;6416;52.182;7.650;2023-04-28T00:40:36;4.43;;;3.03;;
12703;SDS011;6416;52.182;7.650;2023-04-28T00:43:03;3.53;;;2.87;;
12703;SDS011;6416;52.182;7.650;2023-04-28T00:45:29;3.27;;;2.80;;
12703;SDS011;6416;52.182;7.650;2023-04-28T00:47:55;4.23;;;2.90;;
12703;SDS011;6416;52.182;7.650;2023-04-28T00:50:21;3.03;;;2.73;;
12703;SDS011;6416;52.182;7.650;2023-04-28T00:52:48;3.23;;;2.90;;
12703;SDS011;6416;52.182;7.650;2023-04-28T00:55:15;3.93;;;2.40;;
12703;SDS011;6416;52.182;7.650;2023-04-28T00:57:41;3.63;;;2.63;;
12703;SDS011;6416;52.182;7.650;2023-04-28T01:00:07;5.53;;;3.50;;
12703;SDS011;6416;52.182;7.650;2023-04-28T01:02:36;3.03;;;2.70;;
12703;SDS011;6416;52.182;7.650;2023-04-28T01:05:02;4.27;;;2.90;;
12703;SDS011;6416;52.182;7.650;2023-04-28T01:07:28;3.30;;;2.93;;
12703;SDS011;6416;52.182;7.650;2023-04-28T01:09:53;3.10;;;2.83;;
12703;SDS011;6416;52.182;7.650;2023-04-28T01:12:19;3.93;;;2.93;;
12703;SDS011;6416;52.182;7.650;2023-04-28T01:14:45;3.23;;;2.80;;
12703;SDS011;6416;52.182;7.650;2023-04-28T01:17:11;3.47;;;2.83;;
12703;SDS011;6416;52.182;7.650;2023-04-28T01:19:36;3.47;;;2.97;;
12703;SDS011;6416;52.182;7.650;2023-04-28T01:22:02;3.37;;;2.73;;
12703;SDS011;6416;52.182;7.650;2023-04-28T01:24:27;3.20;;;2.77;;
12703;SDS011;6416;52.182;7.650;2023-04-28T01:26:53;3.57;;;2.77;;
12703;SDS011;6416;52.182;7.650;2023-04-28T01:29:18;2.83;;;2.57;;
12703;SDS011;6416;52.182;7.650;2023-04-28T01:31:44;4.80;;;3.00;;
12703;SDS011;6416;52.182;7.650;2023-04-28T01:34:09;3.60;;;2.77;;
12703;SDS011;6416;52.182;7.650;2023-04-28T01:36:35;3.57;;;2.93;;
12703;SDS011;6416;52.182;7.650;2023-04-28T01:39:00;3.97;;;2.93;;
12703;SDS011;6416;52.182;7.650;2023-04-28T01:41:26;4.93;;;3.00;;
12703;SDS011;6416;52.182;7.650;2023-04-28T01:43:51;3.23;;;2.93;;
12703;SDS011;6416;52.182;7.650;2023-04-28T01:46:16;4.20;;;2.77;;
12703;SDS011;6416;52.182;7.650;2023-04-28T01:48:42;3.63;;;3.30;;
12703;SDS011;6416;52.182;7.650;2023-04-28T01:51:07;4.27;;;2.87;;
12703;SDS011;6416;52.182;7.650;2023-04-28T01:53:33;3.37;;;2.67;;
12703;SDS011;6416;52.182;7.650;2023-04-28T01:55:58;4.20;;;2.90;;
12703;SDS011;6416;52.182;7.650;2023-04-28T01:58:24;3.83;;;2.70;;
12703;SDS011;6416;52.182;7.650;2023-04-28T02:00:49;4.53;;;2.53;;
12703;SDS011;6416;52.182;7.650;2023-04-28T02:03:15;4.67;;;2.90;;
12703;SDS011;6416;52.182;7.650;2023-04-28T02:05:40;3.97;;;2.80;;
12703;SDS011;6416;52.182;7.650;2023-04-28T02:08:06;3.13;;;2.83;;
12703;SDS011;6416;52.182;7.650;2023-04-28T02:10:31;3.83;;;3.00;;
12703;SDS011;6416;52.182;7.650;2023-04-28T02:12:57;3.30;;;3.00;;
12703;SDS011;6416;52.182;7.650;2023-04-28T02:15:22;3.03;;;2.73;;
12703;SDS011;6416;52.182;7.650;2023-04-28T02:17:48;4.67;;;3.10;;
12703;SDS011;6416;52.182;7.650;2023-04-28T02:20:13;3.63;;;2.97;;
12703;SDS011;6416;52.182;7.650;2023-04-28T02:22:39;2.97;;;2.70;;
12703;SDS011;6416;52.182;7.650;2023-04-28T02:25:05;3.17;;;2.87;;
12703;SDS011;6416;52.182;7.650;2023-04-28T02:27:31;3.27;;;2.90;;
12703;SDS011;6416;52.182;7.650;2023-04-28T02:29:58;3.20;;;2.90;;
12703;SDS011;6416;52.182;7.650;2023-04-28T02:32:24;2.70;;;2.50;;
12703;SDS011;6416;52.182;7.650;2023-04-28T02:34:55;3.57;;;3.07;;
12703;SDS011;6416;52.182;7.650;2023-04-28T02:37:21;3.07;;;2.73;;
12703;SDS011;6416;52.182;7.650;2023-04-28T02:39:47;5.17;;;3.13;;
12703;SDS011;6416;52.182;7.650;2023-04-28T02:42:12;3.93;;;3.00;;
12703;SDS011;6416;52.182;7.650;2023-04-28T02:44:38;4.27;;;3.27;;
12703;SDS011;6416;52.182;7.650;2023-04-28T02:47:03;3.87;;;3.17;;
12703;SDS011;6416;52.182;7.650;2023-04-28T02:49:29;4.87;;;3.47;;
12703;SDS011;6416;52.182;7.650;2023-04-28T02:51:54;3.67;;;3.27;;
12703;SDS011;6416;52.182;7.650;2023-04-28T02:54:20;3.20;;;2.83;;
12703;SDS011;6416;52.182;7.650;2023-04-28T02:56:45;3.27;;;2.97;;
12703;SDS011;6416;52.182;7.650;2023-04-28T02:59:10;3.57;;;3.23;;
12703;SDS011;6416;52.182;7.650;2023-04-28T03:01:36;4.33;;;3.17;;
12703;SDS011;6416;52.182;7.650;2023-04-28T03:04:01;4.77;;;3.63;;
12703;SDS011;6416;52.182;7.650;2023-04-28T03:06:27;3.73;;;3.30;;
12703;SDS011;6416;52.182;7.650;2023-04-28T03:08:53;3.20;;;2.90;;
12703;SDS011;6416;52.182;7.650;2023-04-28T03:11:18;3.50;;;3.00;;
12703;SDS011;6416;52.182;7.650;2023-04-28T03:13:43;4.70;;;3.07;;
12703;SDS011;6416;52.182;7.650;2023-04-28T03:16:09;3.67;;;3.37;;
12703;SDS011;6416;52.182;7.650;2023-04-28T03:18:34;5.37;;;3.13;;
12703;SDS011;6416;52.182;7.650;2023-04-28T03:21:00;5.63;;;3.30;;
12703;SDS011;6416;52.182;7.650;2023-04-28T03:23:25;3.73;;;3.40;;
12703;SDS011;6416;52.182;7.650;2023-04-28T03:25:51;5.00;;;3.23;;
12703;SDS011;6416;52.182;7.650;2023-04-28T03:28:16;4.60;;;3.53;;
12703;SDS011;6416;52.182;7.650;2023-04-28T03:30:42;3.90;;;3.50;;
12703;SDS011;6416;52.182;7.650;2023-04-28T03:33:07;4.07;;;3.47;;
12703;SDS011;6416;52.182;7.650;2023-04-28T03:35:32;4.07;;;3.67;;
12703;SDS011;6416;52.182;7.650;2023-04-28T03:37:58;4.97;;;3.60;;
12703;SDS011;6416;52.182;7.650;2023-04-28T03:40:23;4.20;;;3.03;;
12703;SDS011;6416;52.182;7.650;2023-04-28T03:42:49;3.93;;;3.50;;
12703;SDS011;6416;52.182;7.650;2023-04-28T03:45:14;3.87;;;3.47;;
12703;SDS011;6416;52.182;7.650;2023-04-28T03:47:40;6.57;;;3.70;;
12703;SDS011;6416;52.182;7.650;2023-04-28T03:50:05;3.50;;;3.20;;
12703;SDS011;6416;52.182;7.650;2023-04-28T03:52:31;4.28;;;3.85;;
12703;SDS011;6416;52.182;7.650;2023-04-28T03:54:57;4.33;;;3.37;;
12703;SDS011;6416;52.182;7.650;2023-04-28T03:57:22;5.33;;;3.70;;
12703;SDS011;6416;52.182;7.650;2023-04-28T03:59:48;4.60;;;3.33;;
12703;SDS011;6416;52.182;7.650;2023-04-28T04:02:13;4.37;;;3.97;;
12703;SDS011;6416;52.182;7.650;2023-04-28T04:04:39;4.33;;;3.73;;
12703;SDS011;6416;52.182;7.650;2023-04-28T04:07:04;5.77;;;3.73;;
12703;SDS011;6416;52.182;7.650;2023-04-28T04:09:30;4.20;;;3.77;;
12703;SDS011;6416;52.182;7.650;2023-04-28T04:11:55;3.83;;;3.47;;
12703;SDS011;6416;52.182;7.650;2023-04-28T04:14:21;6.30;;;4.57;;
12703;SDS011;6416;52.182;7.650;2023-04-28T04:16:46;3.87;;;3.47;;
12703;SDS011;6416;52.182;7.650;2023-04-28T04:19:12;6.30;;;3.97;;
12703;SDS011;6416;52.182;7.650;2023-04-28T04:21:37;4.40;;;3.77;;
12703;SDS011;6416;52.182;7.650;2023-04-28T04:24:03;5.53;;;3.40;;
12703;SDS011;6416;52.182;7.650;2023-04-28T04:26:28;4.27;;;3.43;;
12703;SDS011;6416;52.182;7.650;2023-04-28T04:28:54;4.00;;;3.63;;
12703;SDS011;6416;52.182;7.650;2023-04-28T04:31:19;5.50;;;3.93;;
12703;SDS011;6416;52.182;7.650;2023-04-28T04:33:45;4.60;;;3.77;;
12703;SDS011;6416;52.182;7.650;2023-04-28T04:36:10;4.00;;;3.70;;
12703;SDS011;6416;52.182;7.650;2023-04-28T04:38:36;5.03;;;3.60;;
12703;SDS011;6416;52.182;7.650;2023-04-28T04:41:01;4.17;;;3.30;;
12703;SDS011;6416;52.182;7.650;2023-04-28T04:43:27;5.57;;;3.83;;
12703;SDS011;6416;52.182;7.650;2023-04-28T04:45:52;4.40;;;3.50;;
12703;SDS011;6416;52.182;7.650;2023-04-28T04:48:18;4.00;;;3.47;;
12703;SDS011;6416;52.182;7.650;2023-04-28T04:50:44;6.43;;;4.00;;
12703;SDS011;6416;52.182;7.650;2023-04-28T04:53:09;4.40;;;3.40;;
12703;SDS011;6416;52.182;7.650;2023-04-28T04:55:34;4.67;;;4.10;;
12703;SDS011;6416;52.182;7.650;2023-04-28T04:58:00;4.10;;;3.60;;
12703;SDS011;6416;52.182;7.650;2023-04-28T05:00:25;4.53;;;3.77;;
12703;SDS011;6416;52.182;7.650;2023-04-28T05:02:51;7.50;;;4.20;;
12703;SDS011;6416;52.182;7.650;2023-04-28T05:05:16;4.83;;;3.73;;
12703;SDS011;6416;52.182;7.650;2023-04-28T05:07:42;4.97;;;3.90;;
12703;SDS011;6416;52.182;7.650;2023-04-28T05:10:07;6.67;;;3.70;;
12703;SDS011;6416;52.182;7.650;2023-04-28T05:12:33;5.40;;;4.13;;
12703;SDS011;6416;52.182;7.650;2023-04-28T05:14:59;4.63;;;3.83;;
12703;SDS011;6416;52.182;7.650;2023-04-28T05:17:24;5.10;;;3.80;;
12703;SDS011;6416;52.182;7.650;2023-04-28T05:19:50;4.37;;;3.63;;
12703;SDS011;6416;52.182;7.650;2023-04-28T05:22:15;7.93;;;4.07;;
12703;SDS011;6416;52.182;7.650;2023-04-28T05:24:41;4.57;;;4.07;;
12703;SDS011;6416;52.182;7.650;2023-04-28T05:27:06;4.20;;;3.57;;
12703;SDS011;6416;52.182;7.650;2023-04-28T05:29:31;4.10;;;3.70;;
12703;SDS011;6416;52.182;7.650;2023-04-28T05:31:57;5.27;;;3.77;;
12703;SDS011;6416;52.182;7.650;2023-04-28T05:34:22;4.63;;;3.80;;
12703;SDS011;6416;52.182;7.650;2023-04-28T05:36:48;4.10;;;3.70;;
12703;SDS011;6416;52.182;7.650;2023-04-28T05:39:14;4.23;;;3.83;;
12703;SDS011;6416;52.182;7.650;2023-04-28T05:41:39;5.00;;;3.77;;
12703;SDS011;6416;52.182;7.650;2023-04-28T05:44:05;5.10;;;3.57;;
12703;SDS011;6416;52.182;7.650;2023-04-28T05:46:30;3.93;;;3.63;;
12703;SDS011;6416;52.182;7.650;2023-04-28T05:48:56;4.50;;;3.63;;
12703;SDS011;6416;52.182;7.650;2023-04-28T05:51:21;5.20;;;4.10;;
12703;SDS011;6416;52.182;7.650;2023-04-28T05:53:47;5.73;;;3.60;;
12703;SDS011;6416;52.182;7.650;2023-04-28T05:56:13;4.60;;;3.93;;
12703;SDS011;6416;52.182;7.650;2023-04-28T05:58:38;5.63;;;3.70;;
12703;SDS011;6416;52.182;7.650;2023-04-28T06:01:04;4.93;;;3.83;;
12703;SDS011;6416;52.182;7.650;2023-04-28T06:03:30;4.60;;;3.50;;
12703;SDS011;6416;52.182;7.650;2023-04-28T06:05:55;4.20;;;3.67;;
12703;SDS011;6416;52.182;7.650;2023-04-28T06:08:21;6.33;;;4.00;;
12703;SDS011;6416;52.182;7.650;2023-04-28T06:10:46;5.63;;;4.07;;
12703;SDS011;6416;52.182;7.650;2023-04-28T06:13:12;4.67;;;4.07;;
12703;SDS011;6416;52.182;7.650;2023-04-28T06:15:37;13.17;;;4.10;;
12703;SDS011;6416;52.182;7.650;2023-04-28T06:18:03;5.23;;;4.10;;
12703;SDS011;6416;52.182;7.650;2023-04-28T06:20:28;5.00;;;4.43;;
12703;SDS011;6416;52.182;7.650;2023-04-28T06:22:54;4.43;;;3.90;;
12703;SDS011;6416;52.182;7.650;2023-04-28T06:25:19;5.33;;;4.00;;
12703;SDS011;6416;52.182;7.650;2023-04-28T06:27:44;4.67;;;3.93;;
12703;SDS011;6416;52.182;7.650;2023-04-28T06:30:12;6.57;;;4.30;;
12703;SDS011;6416;52.182;7.650;2023-04-28T06:32:42;5.07;;;4.57;;
12703;SDS011;6416;52.182;7.650;2023-04-28T06:35:07;5.40;;;3.80;;
12703;SDS011;6416;52.182;7.650;2023-04-28T06:37:33;4.33;;;3.97;;
12703;SDS011;6416;52.182;7.650;2023-04-28T06:39:58;4.80;;;4.20;;
12703;SDS011;6416;52.182;7.650;2023-04-28T06:42:24;4.90;;;4.50;;
12703;SDS011;6416;52.182;7.650;2023-04-28T06:44:49;4.40;;;4.00;;
12703;SDS011;6416;52.182;7.650;2023-04-28T06:47:15;4.67;;;3.97;;
12703;SDS011;6416;52.182;7.650;2023-04-28T06:49:40;5.53;;;4.60;;
12703;SDS011;6416;52.182;7.650;2023-04-28T06:52:05;4.63;;;4.17;;
12703;SDS011;6416;52.182;7.650;2023-04-28T06:54:31;4.83;;;4.30;;
12703;SDS011;6416;52.182;7.650;2023-04-28T06:56:56;4.63;;;4.13;;
12703;SDS011;6416;52.182;7.650;2023-04-28T06:59:22;6.80;;;4.27;;
12703;SDS011;6416;52.182;7.650;2023-04-28T07:01:47;4.90;;;3.70;;
12703;SDS011;6416;52.182;7.650;2023-04-28T07:04:13;5.57;;;4.53;;
12703;SDS011;6416;52.182;7.650;2023-04-28T07:06:38;5.97;;;4.40;;
12703;SDS011;6416;52.182;7.650;2023-04-28T07:09:04;5.13;;;4.63;;
12703;SDS011;6416;52.182;7.650;2023-04-28T07:11:29;5.57;;;4.17;;
12703;SDS011;6416;52.182;7.650;2023-04-28T07:13:55;6.30;;;4.90;;
12703;SDS011;6416;52.182;7.650;2023-04-28T07:16:20;6.37;;;4.57;;
12703;SDS011;6416;52.182;7.650;2023-04-28T07:18:46;6.07;;;4.70;;
12703;SDS011;6416;52.182;7.650;2023-04-28T07:21:11;5.03;;;4.50;;
12703;SDS011;6416;52.182;7.650;2023-04-28T07:23:37;8.30;;;4.70;;
12703;SDS011;6416;52.182;7.650;2023-04-28T07:26:02;6.90;;;4.93;;
12703;SDS011;6416;52.182;7.650;2023-04-28T07:28:28;5.03;;;4.40;;
12703;SDS011;6416;52.182;7.650;2023-04-28T07:30:53;6.17;;;5.20;;
12703;SDS011;6416;52.182;7.650;2023-04-28T07:33:19;5.00;;;4.27;;
12703;SDS011;6416;52.182;7.650;2023-04-28T07:35:44;8.50;;;4.80;;
12703;SDS011;6416;52.182;7.650;2023-04-28T07:38:10;4.50;;;4.10;;
12703;SDS011;6416;52.182;7.650;2023-04-28T07:40:35;6.37;;;4.47;;
12703;SDS011;6416;52.182;7.650;2023-04-28T07:43:01;5.47;;;4.33;;
12703;SDS011;6416;52.182;7.650;2023-04-28T07:45:26;5.37;;;4.37;;
12703;SDS011;6416;52.182;7.650;2023-04-28T07:47:52;7.37;;;4.37;;
12703;SDS011;6416;52.182;7.650;2023-04-28T07:50:17;6.40;;;4.63;;
12703;SDS011;6416;52.182;7.650;2023-04-28T07:52:43;5.20;;;4.30;;
12703;SDS011;6416;52.182;7.650;2023-04-28T07:55:08;5.00;;;4.50;;
12703;SDS011;6416;52.182;7.650;2023-04-28T07:57:34;5.17;;;4.67;;
12703;SDS011;6416;52.182;7.650;2023-04-28T07:59:59;4.57;;;4.17;;
12703;SDS011;6416;52.182;7.650;2023-04-28T08:02:25;5.60;;;4.73;;
12703;SDS011;6416;52.182;7.650;2023-04-28T08:04:51;5.40;;;4.90;;
12703;SDS011;6416;52.182;7.650;2023-04-28T08:07:16;5.17;;;4.43;;
12703;SDS011;6416;52.182;7.650;2023-04-28T08:09:42;6.27;;;5.03;;
12703;SDS011;6416;52.182;7.650;2023-04-28T08:12:08;4.90;;;4.17;;
12703;SDS011;6416;52.182;7.650;2023-04-28T08:14:33;6.93;;;4.80;;
12703;SDS011;6416;52.182;7.650;2023-04-28T08:16:58;5.93;;;5.00;;
12703;SDS011;6416;52.182;7.650;2023-04-28T08:19:24;6.93;;;4.90;;
12703;SDS011;6416;52.182;7.650;2023-04-28T08:21:49;5.40;;;4.30;;
12703;SDS011;6416;52.182;7.650;2023-04-28T08:24:15;4.60;;;4.20;;
12703;SDS011;6416;52.182;7.650;2023-04-28T08:26:40;5.33;;;4.87;;
12703;SDS011;6416;52.182;7.650;2023-04-28T08:29:06;4.87;;;4.30;;
12703;SDS011;6416;52.182;7.650;2023-04-28T08:31:31;4.83;;;4.30;;
12703;SDS011;6416;52.182;7.650;2023-04-28T08:33:57;5.10;;;4.60;;
12703;SDS011;6416;52.182;7.650;2023-04-28T08:36:22;5.10;;;4.60;;
12703;SDS011;6416;52.182;7.650;2023-04-28T08:38:49;4.80;;;4.30;;
12703;SDS011;6416;52.182;7.650;2023-04-28T08:41:15;4.60;;;4.20;;
12703;SDS011;6416;52.182;7.650;2023-04-28T08:43:40;4.63;;;4.23;;
12703;SDS011;6416;52.182;7.650;2023-04-28T08:46:06;5.57;;;5.00;;
12703;SDS011;6416;52.182;7.650;2023-04-28T08:48:39;5.37;;;4.60;;
12703;SDS011;6416;52.182;7.650;2023-04-28T08:51:06;6.33;;;4.47;;
12703;SDS011;6416;52.182;7.650;2023-04-28T08:53:32;4.77;;;4.27;;
12703;SDS011;6416;52.182;7.650;2023-04-28T08:56:04;5.27;;;4.77;;
12703;SDS011;6416;52.182;7.650;2023-04-28T08:58:30;9.97;;;4.60;;
12703;SDS011;6416;52.182;7.650;2023-04-28T09:00:56;8.33;;;4.57;;
12703;SDS011;6416;52.182;7.650;2023-04-28T09:03:21;4.27;;;3.87;;
12703;SDS011;6416;52.182;7.650;2023-04-28T09:05:47;6.13;;;4.20;;
12703;SDS011;6416;52.182;7.650;2023-04-28T09:08:12;5.50;;;4.47;;
12703;SDS011;6416;52.182;7.650;2023-04-28T09:10:38;5.57;;;4.37;;
12703;SDS011;6416;52.182;7.650;2023-04-28T09:13:04;5.73;;;4.30;;
12703;SDS011;6416;52.182;7.650;2023-04-28T09:15:33;4.37;;;4.03;;
12703;SDS011;6416;52.182;7.650;2023-04-28T09:18:03;4.80;;;4.10;;
12703;SDS011;6416;52.182;7.650;2023-04-28T09:20:30;4.90;;;4.40;;
12703;SDS011;6416;52.182;7.650;2023-04-28T09:23:13;4.57;;;3.90;;
12703;SDS011;6416;52.182;7.650;2023-04-28T09:25:58;5.50;;;4.73;;
12703;SDS011;6416;52.182;7.650;2023-04-28T09:28:27;5.73;;;4.00;;
12703;SDS011;6416;52.182;7.650;2023-04-28T09:30:53;7.90;;;4.40;;
12703;SDS011;6416;52.182;7.650;2023-04-28T09:33:19;5.78;;;4.35;;
12703;SDS011;6416;52.182;7.650;2023-04-28T09:35:44;4.88;;;4.47;;
12703;SDS011;6416;52.182;7.650;2023-04-28T09:38:10;4.75;;;4.30;;
12703;SDS011;6416;52.182;7.650;2023-04-28T09:40:53;5.15;;;4.65;;
12703;SDS011;6416;52.182;7.650;2023-04-28T09:43:22;5.85;;;4.93;;
12703;SDS011;6416;52.182;7.650;2023-04-28T09:45:55;5.75;;;4.35;;
12703;SDS011;6416;52.182;7.650;2023-04-28T09:51:01;4.63;;;4.20;;
12703;SDS011;6416;52.182;7.650;2023-04-28T09:53:28;4.30;;;4.00;;
12703;SDS011;6416;52.182;7.650;2023-04-28T09:55:55;4.68;;;4.10;;
12703;SDS011;6416;52.182;7.650;2023-04-28T09:58:22;4.45;;;3.75;;
12703;SDS011;6416;52.182;7.650;2023-04-28T10:00:50;4.32;;;3.58;;
12703;SDS011;6416;52.182;7.650;2023-04-28T10:03:24;3.78;;;3.40;;
12703;SDS011;6416;52.182;7.650;2023-04-28T10:05:50;5.43;;;3.45;;
12703;SDS011;6416;52.182;7.650;2023-04-28T10:08:16;4.68;;;3.90;;
12703;SDS011;6416;52.182;7.650;2023-04-28T10:10:42;4.10;;;3.60;;
12703;SDS011;6416;52.182;7.650;2023-04-28T10:13:08;5.18;;;3.28;;
12703;SDS011;6416;52.182;7.650;2023-04-28T10:15:33;3.85;;;3.42;;
12703;SDS011;6416;52.182;7.650;2023-04-28T10:18:00;5.60;;;3.13;;
12703;SDS011;6416;52.182;7.650;2023-04-28T10:20:27;4.97;;;3.22;;
12703;SDS011;6416;52.182;7.650;2023-04-28T10:23:05;3.10;;;2.80;;
12703;SDS011;6416;52.182;7.650;2023-04-28T10:25:56;3.67;;;3.13;;
12703;SDS011;6416;52.182;7.650;2023-04-28T10:28:22;3.92;;;3.42;;
12703;SDS011;6416;52.182;7.650;2023-04-28T10:33:36;4.00;;;2.92;;
12703;SDS011;6416;52.182;7.650;2023-04-28T10:36:03;4.05;;;3.35;;
12703;SDS011;6416;52.182;7.650;2023-04-28T10:38:29;5.10;;;3.35;;
12703;SDS011;6416;52.182;7.650;2023-04-28T10:40:54;4.43;;;4.03;;
12703;SDS011;6416;52.182;7.650;2023-04-28T10:45:57;3.90;;;3.50;;
12703;SDS011;6416;52.182;7.650;2023-04-28T10:56:08;4.38;;;3.78;;
12703;SDS011;6416;52.182;7.650;2023-04-28T10:58:50;4.85;;;3.53;;
12703;SDS011;6416;52.182;7.650;2023-04-28T11:08:45;6.50;;;4.10;;
12703;SDS011;6416;52.182;7.650;2023-04-28T11:11:15;4.78;;;4.38;;
12703;SDS011;6416;52.182;7.650;2023-04-28T11:13:42;4.32;;;3.97;;
12703;SDS011;6416;52.182;7.650;2023-04-28T11:16:07;4.55;;;4.15;;
12703;SDS011;6416;52.182;7.650;2023-04-28T11:18:48;4.07;;;3.72;;
12703;SDS011;6416;52.182;7.650;2023-04-28T11:21:18;4.28;;;3.88;;
12703;SDS011;6416;52.182;7.650;2023-04-28T11:23:44;6.47;;;5.22;;
12703;SDS011;6416;52.182;7.650;2023-04-28T11:26:10;5.80;;;4.00;;
12703;SDS011;6416;52.182;7.650;2023-04-28T11:28:41;4.35;;;4.03;;
12703;SDS011;6416;52.182;7.650;2023-04-28T11:31:15;4.40;;;4.00;;
12703;SDS011;6416;52.182;7.650;2023-04-28T11:33:41;5.90;;;4.15;;
12703;SDS011;6416;52.182;7.650;2023-04-28T11:36:13;4.00;;;3.70;;
12703;SDS011;6416;52.182;7.650;2023-04-28T11:38:54;7.43;;;4.15;;
12703;SDS011;6416;52.182;7.650;2023-04-28T11:41:20;5.22;;;4.72;;
12703;SDS011;6416;52.182;7.650;2023-04-28T11:43:46;4.75;;;4.32;;
12703;SDS011;6416;52.182;7.650;2023-04-28T11:46:22;4.15;;;3.83;;
12703;SDS011;6416;52.182;7.650;2023-04-28T11:48:58;4.28;;;3.88;;
12703;SDS011;6416;52.182;7.650;2023-04-28T11:51:30;5.28;;;4.85;;
12703;SDS011;6416;52.182;7.650;2023-04-28T11:53:58;4.53;;;4.15;;
12703;SDS011;6416;52.182;7.650;2023-04-28T11:56:24;4.90;;;4.47;;
12703;SDS011;6416;52.182;7.650;2023-04-28T12:01:54;4.80;;;4.18;;
12703;SDS011;6416;52.182;7.650;2023-04-28T12:04:25;5.28;;;4.78;;
12703;SDS011;6416;52.182;7.650;2023-04-28T12:07:13;4.80;;;3.90;;
12703;SDS011;6416;52.182;7.650;2023-04-28T12:09:43;4.63;;;4.22;;
12703;SDS011;6416;52.182;7.650;2023-04-28T12:12:11;4.78;;;4.32;;
12703;SDS011;6416;52.182;7.650;2023-04-28T12:17:27;4.78;;;4.38;;
12703;SDS011;6416;52.182;7.650;2023-04-28T12:19:55;4.72;;;4.32;;
12703;SDS011;6416;52.182;7.650;2023-04-28T12:22:23;4.50;;;4.15;;
12703;SDS011;6416;52.182;7.650;2023-04-28T12:25:05;4.38;;;3.97;;
12703;SDS011;6416;52.182;7.650;2023-04-28T12:27:33;5.10;;;4.60;;
12703;SDS011;6416;52.182;7.650;2023-04-28T12:30:00;4.80;;;4.28;;
12703;SDS011;6416;52.182;7.650;2023-04-28T12:32:38;4.78;;;4.38;;
12703;SDS011;6416;52.182;7.650;2023-04-28T12:35:05;4.00;;;3.70;;
12703;SDS011;6416;52.182;7.650;2023-04-28T12:37:31;5.20;;;4.70;;
12703;SDS011;6416;52.182;7.650;2023-04-28T12:39:57;5.18;;;4.68;;
12703;SDS011;6416;52.182;7.650;2023-04-28T12:42:23;5.10;;;4.60;;
12703;SDS011;6416;52.182;7.650;2023-04-28T12:44:48;5.45;;;4.45;;
12703;SDS011;6416;52.182;7.650;2023-04-28T12:47:14;5.47;;;4.97;;
12703;SDS011;6416;52.182;7.650;2023-04-28T12:49:40;4.82;;;4.43;;
12703;SDS011;6416;52.182;7.650;2023-04-28T12:52:05;5.22;;;4.65;;
12703;SDS011;6416;52.182;7.650;2023-04-28T12:54:31;4.72;;;4.32;;
12703;SDS011;6416;52.182;7.650;2023-04-28T12:56:56;4.32;;;4.03;;
12703;SDS011;6416;52.182;7.650;2023-04-28T12:59:22;5.28;;;4.82;;
12703;SDS011;6416;52.182;7.650;2023-04-28T13:01:48;4.47;;;4.07;;
12703;SDS011;6416;52.182;7.650;2023-04-28T13:04:13;5.28;;;4.70;;
12703;SDS011;6416;52.182;7.650;2023-04-28T13:06:39;4.93;;;4.53;;
12703;SDS011;6416;52.182;7.650;2023-04-28T13:09:04;5.03;;;4.50;;
12703;SDS011;6416;52.182;7.650;2023-04-28T13:11:30;5.50;;;5.07;;
12703;SDS011;6416;52.182;7.650;2023-04-28T13:13:55;4.75;;;4.35;;
12703;SDS011;6416;52.182;7.650;2023-04-28T13:16:21;5.20;;;4.80;;
12703;SDS011;6416;52.182;7.650;2023-04-28T13:18:47;5.30;;;4.90;;
12703;SDS011;6416;52.182;7.650;2023-04-28T13:21:13;5.43;;;4.95;;
12703;SDS011;6416;52.182;7.650;2023-04-28T13:23:38;5.07;;;4.60;;
12703;SDS011;6416;52.182;7.650;2023-04-28T13:26:04;5.63;;;5.13;;
12703;SDS011;6416;52.182;7.650;2023-04-28T13:28:29;5.32;;;4.82;;
12703;SDS011;6416;52.182;7.650;2023-04-28T13:30:54;5.03;;;4.65;;
12703;SDS011;6416;52.182;7.650;2023-04-28T13:33:20;5.25;;;4.85;;
12703;SDS011;6416;52.182;7.650;2023-04-28T13:35:45;5.93;;;5.40;;
12703;SDS011;6416;52.182;7.650;2023-04-28T13:38:11;5.47;;;5.05;;
12703;SDS011;6416;52.182;7.650;2023-04-28T13:40:36;5.72;;;5.28;;
12703;SDS011;6416;52.182;7.650;2023-04-28T13:43:02;6.05;;;5.55;;
12703;SDS011;6416;52.182;7.650;2023-04-28T13:45:27;6.90;;;6.40;;
12703;SDS011;6416;52.182;7.650;2023-04-28T13:47:53;6.97;;;6.38;;
12703;SDS011;6416;52.182;7.650;2023-04-28T13:50:18;7.20;;;6.30;;
12703;SDS011;6416;52.182;7.650;2023-04-28T13:52:44;7.10;;;6.50;;
12703;SDS011;6416;52.182;7.650;2023-04-28T13:55:09;6.78;;;6.30;;
12703;SDS011;6416;52.182;7.650;2023-04-28T13:57:35;7.15;;;6.60;;
12703;SDS011;6416;52.182;7.650;2023-04-28T14:00:00;7.45;;;6.85;;
12703;SDS011;6416;52.182;7.650;2023-04-28T14:02:26;7.13;;;6.50;;
12703;SDS011;6416;52.182;7.650;2023-04-28T14:04:51;7.05;;;6.30;;
12703;SDS011;6416;52.182;7.650;2023-04-28T14:07:17;6.65;;;6.15;;
12703;SDS011;6416;52.182;7.650;2023-04-28T14:09:42;7.13;;;6.53;;
12703;SDS011;6416;52.182;7.650;2023-04-28T14:12:08;7.30;;;6.70;;
12703;SDS011;6416;52.182;7.650;2023-04-28T14:14:33;6.93;;;6.15;;
12703;SDS011;6416;52.182;7.650;2023-04-28T14:16:59;7.63;;;6.93;;
12703;SDS011;6416;52.182;7.650;2023-04-28T14:19:24;7.57;;;6.97;;
12703;SDS011;6416;52.182;7.650;2023-04-28T14:21:50;7.75;;;7.05;;
12703;SDS011;6416;52.182;7.650;2023-04-28T14:24:15;7.32;;;6.72;;
12703;SDS011;6416;52.182;7.650;2023-04-28T14:26:41;7.43;;;6.57;;
12703;SDS011;6416;52.182;7.650;2023-04-28T14:29:06;7.00;;;6.50;;
12703;SDS011;6416;52.182;7.650;2023-04-28T14:31:32;6.95;;;6.40;;
12703;SDS011;6416;52.182;7.650;2023-04-28T14:33:58;7.65;;;6.95;;
12703;SDS011;6416;52.182;7.650;2023-04-28T14:36:23;7.38;;;6.78;;
12703;SDS011;6416;52.182;7.650;2023-04-28T14:38:49;8.02;;;7.22;;
12703;SDS011;6416;52.182;7.650;2023-04-28T14:41:14;7.78;;;6.93;;
12703;SDS011;6416;52.182;7.650;2023-04-28T14:43:40;7.50;;;6.80;;
12703;SDS011;6416;52.182;7.650;2023-04-28T14:46:05;7.30;;;6.68;;
12703;SDS011;6416;52.182;7.650;2023-04-28T14:48:31;7.57;;;6.97;;
12703;SDS011;6416;52.182;7.650;2023-04-28T14:50:56;7.28;;;6.68;;
12703;SDS011;6416;52.182;7.650;2023-04-28T14:53:22;7.10;;;6.47;;
12703;SDS011;6416;52.182;7.650;2023-04-28T14:55:47;6.90;;;6.35;;
12703;SDS011;6416;52.182;7.650;2023-04-28T14:58:13;7.38;;;6.70;;
12703;SDS011;6416;52.182;7.650;2023-04-28T15:00:38;6.90;;;6.35;;
12703;SDS011;6416;52.182;7.650;2023-04-28T15:03:04;7.47;;;6.88;;
12703;SDS011;6416;52.182;7.650;2023-04-28T15:05:30;8.48;;;7.60;;
12703;SDS011;6416;52.182;7.650;2023-04-28T15:07:55;8.30;;;7.55;;
12703;SDS011;6416;52.182;7.650;2023-04-28T15:10:20;8.18;;;7.47;;
12703;SDS011;6416;52.182;7.650;2023-04-28T15:12:46;7.82;;;7.22;;
12703;SDS011;6416;52.182;7.650;2023-04-28T15:15:12;7.40;;;6.80;;
12703;SDS011;6416;52.182;7.650;2023-04-28T15:17:38;8.63;;;7.93;;
12703;SDS011;6416;52.182;7.650;2023-04-28T15:20:03;8.63;;;7.93;;
12703;SDS011;6416;52.182;7.650;2023-04-28T15:22:30;8.40;;;7.70;;
12703;SDS011;6416;52.182;7.650;2023-04-28T15:24:55;8.27;;;7.47;;